WARNING - Change wsUserSettings.php: $SITE["topfolder"] from : weather28m/ to: ./
Welcome to our new website - Welkom op onze vernieuwde website - Bienvenue sur notre nouveau site web - Willkommen auf unserer neuen Website
Check our progress frequently. Prüfen Sie unsere Fortschritte regelmäßig. Consultez notre progression fréquemment. Komt u straks nog eens terug


Webcam zuid Meer informatie Webcam zuid


Onweer radar Meer informatie blitzortung!


Regen radar Meer informatie rain snow radar


Bezoek onze andere website:

Template documentation
and downloads

And another site


U vindt ons ook hier:

Het Weer Aktueel

UK Metoffice

European Weather Network

WeatherCloud

Weather Underground

AWEKAS

Citizen Weather Observer Program (CWOP)

HAMweather, WeatherForYou, PWS Weather

Wetterpage 24

Roosendaal op internet

VWKWEB

RadioZuidWestFM



Het weer levert geen direct gevaar op.    Er zijn geen waarschuwingen afgegeven.

METAR rapporten vliegvelden

   
EHWO - Woensdrecht
Gewijzigd: 19-06-2018 21:55
Bewolking  
Bewolking  
   Wind: varieert 3.7 km/h
Wind: varieert 3.7 km/h
Temperatuur: 19°C
Dauwpunt: 16°C
Vochtigheid: 83%
Barometer: 1023 hPa
Bewolking: Bewolking
Zicht: meer dan 10 km
Bewolking: Licht bewolkt 1900 ft,
Bewolking 3000 ft
EHWO 191955Z AUTO VRB02KT 9999 FEW019 OVC030 19/16 Q1023 BLU
EHWO - Steenbergen
Gewijzigd: 19-06-2018 21:55
Bewolking  
Bewolking  
   Wind: varieert 3.7 km/h
Wind: varieert 3.7 km/h
Temperatuur: 19°C
Dauwpunt: 16°C
Vochtigheid: 83%
Barometer: 1023 hPa
Bewolking: Bewolking
Zicht: meer dan 10 km
Bewolking: Licht bewolkt 1900 ft,
Bewolking 3000 ft
EHWO 191955Z AUTO VRB02KT 9999 FEW019 OVC030 19/16 Q1023 BLU
EHWO - Oud-Gastel
Gewijzigd: 19-06-2018 21:55
Bewolking  
Bewolking  
   Wind: varieert 3.7 km/h
Wind: varieert 3.7 km/h
Temperatuur: 19°C
Dauwpunt: 16°C
Vochtigheid: 83%
Barometer: 1023 hPa
Bewolking: Bewolking
Zicht: meer dan 10 km
Bewolking: Licht bewolkt 1900 ft,
Bewolking 3000 ft
EHWO 191955Z AUTO VRB02KT 9999 FEW019 OVC030 19/16 Q1023 BLU
EHWO - Oudenbosch
Gewijzigd: 19-06-2018 21:55
Bewolking  
Bewolking  
   Wind: varieert 3.7 km/h
Wind: varieert 3.7 km/h
Temperatuur: 19°C
Dauwpunt: 16°C
Vochtigheid: 83%
Barometer: 1023 hPa
Bewolking: Bewolking
Zicht: meer dan 10 km
Bewolking: Licht bewolkt 1900 ft,
Bewolking 3000 ft
EHWO 191955Z AUTO VRB02KT 9999 FEW019 OVC030 19/16 Q1023 BLU
EHWO - Rucphen
Gewijzigd: 19-06-2018 21:55
Bewolking  
Bewolking  
   Wind: varieert 3.7 km/h
Wind: varieert 3.7 km/h
Temperatuur: 19°C
Dauwpunt: 16°C
Vochtigheid: 83%
Barometer: 1023 hPa
Bewolking: Bewolking
Zicht: meer dan 10 km
Bewolking: Licht bewolkt 1900 ft,
Bewolking 3000 ft
EHWO 191955Z AUTO VRB02KT 9999 FEW019 OVC030 19/16 Q1023 BLU
EHWO - Bergen op Zoom
Gewijzigd: 19-06-2018 21:55
Bewolking  
Bewolking  
   Wind: varieert 3.7 km/h
Wind: varieert 3.7 km/h
Temperatuur: 19°C
Dauwpunt: 16°C
Vochtigheid: 83%
Barometer: 1023 hPa
Bewolking: Bewolking
Zicht: meer dan 10 km
Bewolking: Licht bewolkt 1900 ft,
Bewolking 3000 ft
EHWO 191955Z AUTO VRB02KT 9999 FEW019 OVC030 19/16 Q1023 BLU
EHWO - Fijnaart
Gewijzigd: 19-06-2018 21:55
Bewolking  
Bewolking  
   Wind: varieert 3.7 km/h
Wind: varieert 3.7 km/h
Temperatuur: 19°C
Dauwpunt: 16°C
Vochtigheid: 83%
Barometer: 1023 hPa
Bewolking: Bewolking
Zicht: meer dan 10 km
Bewolking: Licht bewolkt 1900 ft,
Bewolking 3000 ft
EHWO 191955Z AUTO VRB02KT 9999 FEW019 OVC030 19/16 Q1023 BLU
EHWO - Ossendrecht
Gewijzigd: 19-06-2018 21:55
Bewolking  
Bewolking  
   Wind: varieert 3.7 km/h
Wind: varieert 3.7 km/h
Temperatuur: 19°C
Dauwpunt: 16°C
Vochtigheid: 83%
Barometer: 1023 hPa
Bewolking: Bewolking
Zicht: meer dan 10 km
Bewolking: Licht bewolkt 1900 ft,
Bewolking 3000 ft
EHWO 191955Z AUTO VRB02KT 9999 FEW019 OVC030 19/16 Q1023 BLU
 

Script ontwikkeld door  Saratoga-weather.org Aangepast voor de template door  Weerstation Leuven

Apparatuur in gebruik:

Weerstation
Davis VP2

Weerprogramma
Weather Display

Weercomputer
Shuttle

Webleverancier
WeservIT

Davis VP2

Weather Display

Shuttle

WeservIT